sensor_id;sensor_type;location;lat;lon;timestamp;pressure;altitude;pressure_sealevel;temperature;humidity
78890;BME280;68279;48.964;14.502;2023-12-29T08:46:54;97049.94;;;8.10;74.20
78890;BME280;68279;48.964;14.502;2023-12-29T10:25:32;97023.66;;;10.14;66.71
78890;BME280;68279;48.964;14.502;2023-12-29T10:27:58;97017.94;;;10.36;66.73
78890;BME280;68279;48.964;14.502;2023-12-29T10:30:24;97024.81;;;10.47;65.31
78890;BME280;68279;48.964;14.502;2023-12-29T10:32:50;97031.31;;;10.36;66.13
78890;BME280;68279;48.964;14.502;2023-12-29T10:35:17;97012.88;;;10.35;65.97
78890;BME280;68279;48.964;14.502;2023-12-29T10:37:43;97013.91;;;10.39;67.05
78890;BME280;68279;48.964;14.502;2023-12-29T10:40:09;97007.03;;;10.28;66.49
78890;BME280;68279;48.964;14.502;2023-12-29T10:42:53;97005.19;;;10.23;66.88
78890;BME280;68279;48.964;14.502;2023-12-29T10:45:20;97004.59;;;10.36;66.86
78890;BME280;68279;48.964;14.502;2023-12-29T10:47:45;97002.53;;;10.57;64.73
78890;BME280;68279;48.964;14.502;2023-12-29T10:50:10;97010.81;;;10.61;65.31
78890;BME280;68279;48.964;14.502;2023-12-29T10:52:36;97002.81;;;10.56;65.40
78890;BME280;68279;48.964;14.502;2023-12-29T10:55:07;97002.44;;;10.67;65.56
78890;BME280;68279;48.964;14.502;2023-12-29T10:57:37;97009.47;;;10.58;65.29
78890;BME280;68279;48.964;14.502;2023-12-29T11:00:07;97000.34;;;10.64;66.32
78890;BME280;68279;48.964;14.502;2023-12-29T11:02:34;96996.44;;;10.52;65.32
78890;BME280;68279;48.964;14.502;2023-12-29T11:05:03;96995.81;;;10.60;65.57
78890;BME280;68279;48.964;14.502;2023-12-29T11:07:40;96996.97;;;10.48;65.88
78890;BME280;68279;48.964;14.502;2023-12-29T11:10:07;96988.28;;;10.33;66.69
78890;BME280;68279;48.964;14.502;2023-12-29T11:12:34;96990.44;;;10.31;66.96
78890;BME280;68279;48.964;14.502;2023-12-29T11:15:02;96990.16;;;10.32;66.58
78890;BME280;68279;48.964;14.502;2023-12-29T11:17:30;96983.78;;;10.28;66.86
78890;BME280;68279;48.964;14.502;2023-12-29T11:19:58;96969.13;;;10.26;67.62
78890;BME280;68279;48.964;14.502;2023-12-29T11:22:24;96965.66;;;10.25;67.74
78890;BME280;68279;48.964;14.502;2023-12-29T11:24:51;96961.59;;;10.28;67.15
78890;BME280;68279;48.964;14.502;2023-12-29T11:27:17;96962.97;;;10.25;67.21
78890;BME280;68279;48.964;14.502;2023-12-29T11:29:47;96957.84;;;10.29;67.48
78890;BME280;68279;48.964;14.502;2023-12-29T11:32:17;96950.63;;;10.29;66.58
78890;BME280;68279;48.964;14.502;2023-12-29T11:34:51;96937.03;;;10.20;67.86
78890;BME280;68279;48.964;14.502;2023-12-29T11:39:52;96935.16;;;10.21;67.84
78890;BME280;68279;48.964;14.502;2023-12-29T11:42:38;96933.84;;;10.18;68.52
78890;BME280;68279;48.964;14.502;2023-12-29T11:45:25;96941.31;;;10.27;68.19
78890;BME280;68279;48.964;14.502;2023-12-29T11:47:53;96941.53;;;10.30;68.27
78890;BME280;68279;48.964;14.502;2023-12-29T11:50:50;96936.97;;;10.31;67.71
78890;BME280;68279;48.964;14.502;2023-12-29T11:53:31;96932.16;;;10.33;67.16
78890;BME280;68279;48.964;14.502;2023-12-29T11:55:56;96929.22;;;10.34;67.17
78890;BME280;68279;48.964;14.502;2023-12-29T11:58:26;96931.53;;;10.41;66.80
78890;BME280;68279;48.964;14.502;2023-12-29T12:00:53;96927.25;;;10.45;66.58
78890;BME280;68279;48.964;14.502;2023-12-29T12:03:25;96920.50;;;10.53;66.07
78890;BME280;68279;48.964;14.502;2023-12-29T12:05:52;96921.56;;;10.52;66.69
78890;BME280;68279;48.964;14.502;2023-12-29T12:08:36;96922.81;;;10.59;65.96
78890;BME280;68279;48.964;14.502;2023-12-29T12:14:01;96920.06;;;10.69;65.45
78890;BME280;68279;48.964;14.502;2023-12-29T12:19:10;96920.63;;;10.90;64.13
78890;BME280;68279;48.964;14.502;2023-12-29T12:21:36;96914.69;;;10.93;64.16
78890;BME280;68279;48.964;14.502;2023-12-29T12:24:05;96908.09;;;11.10;63.63
78890;BME280;68279;48.964;14.502;2023-12-29T12:26:31;96899.72;;;11.16;63.19
78890;BME280;68279;48.964;14.502;2023-12-29T12:28:57;96908.84;;;11.15;63.86
78890;BME280;68279;48.964;14.502;2023-12-29T12:31:23;96903.50;;;11.15;63.68
78890;BME280;68279;48.964;14.502;2023-12-29T12:33:55;96912.47;;;11.24;63.71
78890;BME280;68279;48.964;14.502;2023-12-29T12:36:22;96899.25;;;11.33;62.86
78890;BME280;68279;48.964;14.502;2023-12-29T12:38:54;96901.84;;;11.38;62.71
78890;BME280;68279;48.964;14.502;2023-12-29T12:41:24;96897.66;;;11.32;62.97
78890;BME280;68279;48.964;14.502;2023-12-29T12:46:44;96886.47;;;11.49;62.47
78890;BME280;68279;48.964;14.502;2023-12-29T12:49:15;96894.41;;;11.35;62.97
78890;BME280;68279;48.964;14.502;2023-12-29T12:51:42;96891.72;;;11.35;62.86
78890;BME280;68279;48.964;14.502;2023-12-29T12:54:08;96886.56;;;11.39;63.08
78890;BME280;68279;48.964;14.502;2023-12-29T12:56:35;96880.38;;;11.43;63.70
78890;BME280;68279;48.964;14.502;2023-12-29T12:59:02;96882.09;;;11.34;63.43
78890;BME280;68279;48.964;14.502;2023-12-29T13:01:28;96885.72;;;11.24;63.52
78890;BME280;68279;48.964;14.502;2023-12-29T13:03:56;96883.31;;;11.23;63.58
78890;BME280;68279;48.964;14.502;2023-12-29T13:06:23;96885.13;;;11.27;65.37
78890;BME280;68279;48.964;14.502;2023-12-29T13:08:50;96877.75;;;11.57;63.26
78890;BME280;68279;48.964;14.502;2023-12-29T13:11:20;96885.78;;;11.57;63.58
78890;BME280;68279;48.964;14.502;2023-12-29T13:13:51;96874.16;;;11.85;61.92
78890;BME280;68279;48.964;14.502;2023-12-29T13:16:32;96888.34;;;11.86;62.63
78890;BME280;68279;48.964;14.502;2023-12-29T13:19:19;96885.50;;;11.96;62.42
78890;BME280;68279;48.964;14.502;2023-12-29T13:21:50;96889.69;;;12.21;61.61
78890;BME280;68279;48.964;14.502;2023-12-29T13:24:19;96884.50;;;11.92;63.02
78890;BME280;68279;48.964;14.502;2023-12-29T13:26:47;96886.59;;;11.57;62.87
78890;BME280;68279;48.964;14.502;2023-12-29T13:29:22;96879.03;;;11.22;64.60
78890;BME280;68279;48.964;14.502;2023-12-29T13:31:52;96877.72;;;11.19;64.26
78890;BME280;68279;48.964;14.502;2023-12-29T13:34:30;96872.84;;;11.02;65.14
78890;BME280;68279;48.964;14.502;2023-12-29T13:37:09;96878.41;;;10.87;65.95
78890;BME280;68279;48.964;14.502;2023-12-29T13:39:49;96877.44;;;10.78;65.64
78890;BME280;68279;48.964;14.502;2023-12-29T13:42:18;96884.22;;;10.70;66.86
78890;BME280;68279;48.964;14.502;2023-12-29T13:44:46;96885.72;;;10.76;67.02
78890;BME280;68279;48.964;14.502;2023-12-29T13:47:13;96879.00;;;10.55;67.46
78890;BME280;68279;48.964;14.502;2023-12-29T13:49:40;96883.09;;;10.47;67.13
78890;BME280;68279;48.964;14.502;2023-12-29T13:52:05;96879.72;;;10.37;67.94
78890;BME280;68279;48.964;14.502;2023-12-29T13:54:42;96873.47;;;10.17;68.52
78890;BME280;68279;48.964;14.502;2023-12-29T13:57:08;96883.63;;;10.15;68.70
78890;BME280;68279;48.964;14.502;2023-12-29T13:59:33;96882.03;;;10.14;68.61
78890;BME280;68279;48.964;14.502;2023-12-29T14:02:15;96876.84;;;9.99;68.99
78890;BME280;68279;48.964;14.502;2023-12-29T14:04:44;96886.78;;;9.88;68.93
78890;BME280;68279;48.964;14.502;2023-12-29T14:07:10;96897.75;;;9.87;68.88
78890;BME280;68279;48.964;14.502;2023-12-29T14:09:36;96899.63;;;9.86;69.16
78890;BME280;68279;48.964;14.502;2023-12-29T14:12:01;96900.19;;;9.83;69.37
78890;BME280;68279;48.964;14.502;2023-12-29T14:14:27;96899.91;;;9.85;68.94
78890;BME280;68279;48.964;14.502;2023-12-29T14:16:53;96911.94;;;9.82;68.97
78890;BME280;68279;48.964;14.502;2023-12-29T14:19:19;96918.09;;;9.78;69.01
78890;BME280;68279;48.964;14.502;2023-12-29T14:21:48;96919.25;;;9.67;69.88
78890;BME280;68279;48.964;14.502;2023-12-29T14:24:15;96920.78;;;9.78;69.19
78890;BME280;68279;48.964;14.502;2023-12-29T14:26:42;96917.38;;;9.72;69.52
78890;BME280;68279;48.964;14.502;2023-12-29T14:29:12;96918.47;;;9.66;69.76
78890;BME280;68279;48.964;14.502;2023-12-29T14:31:39;96913.19;;;9.56;70.64
78890;BME280;68279;48.964;14.502;2023-12-29T14:34:05;96923.66;;;9.47;71.20
78890;BME280;68279;48.964;14.502;2023-12-29T14:36:32;96928.13;;;9.52;70.97
78890;BME280;68279;48.964;14.502;2023-12-29T14:38:58;96921.72;;;9.58;70.50
78890;BME280;68279;48.964;14.502;2023-12-29T14:41:24;96926.59;;;9.46;71.12
78890;BME280;68279;48.964;14.502;2023-12-29T14:43:50;96926.84;;;9.44;71.28
78890;BME280;68279;48.964;14.502;2023-12-29T14:46:15;96925.81;;;9.40;71.56
78890;BME280;68279;48.964;14.502;2023-12-29T14:48:41;96921.25;;;9.46;71.38
78890;BME280;68279;48.964;14.502;2023-12-29T14:51:07;96929.03;;;9.37;71.68
78890;BME280;68279;48.964;14.502;2023-12-29T14:53:32;96919.16;;;9.38;71.75
78890;BME280;68279;48.964;14.502;2023-12-29T14:55:58;96933.06;;;9.29;72.25
78890;BME280;68279;48.964;14.502;2023-12-29T14:58:24;96918.38;;;9.27;72.32
78890;BME280;68279;48.964;14.502;2023-12-29T15:00:49;96915.72;;;9.27;72.17
78890;BME280;68279;48.964;14.502;2023-12-29T15:03:14;96922.69;;;9.23;72.69
78890;BME280;68279;48.964;14.502;2023-12-29T15:05:43;96924.03;;;9.15;72.79
78890;BME280;68279;48.964;14.502;2023-12-29T15:08:09;96922.34;;;9.34;71.80
78890;BME280;68279;48.964;14.502;2023-12-29T15:10:34;96913.50;;;9.44;71.32
78890;BME280;68279;48.964;14.502;2023-12-29T15:13:01;96910.38;;;9.27;72.29
78890;BME280;68279;48.964;14.502;2023-12-29T15:15:26;96918.84;;;9.44;71.30
78890;BME280;68279;48.964;14.502;2023-12-29T15:17:52;96914.63;;;9.38;71.72
78890;BME280;68279;48.964;14.502;2023-12-29T15:20:17;96915.47;;;9.23;72.48
78890;BME280;68279;48.964;14.502;2023-12-29T15:22:42;96919.00;;;9.08;73.52
78890;BME280;68279;48.964;14.502;2023-12-29T15:25:09;96912.66;;;8.94;74.05
78890;BME280;68279;48.964;14.502;2023-12-29T15:27:34;96908.16;;;8.79;75.00
78890;BME280;68279;48.964;14.502;2023-12-29T15:30:00;96913.50;;;8.74;75.00
78890;BME280;68279;48.964;14.502;2023-12-29T15:32:25;96908.22;;;8.54;75.97
78890;BME280;68279;48.964;14.502;2023-12-29T15:34:51;96906.34;;;8.55;75.96
78890;BME280;68279;48.964;14.502;2023-12-29T15:37:16;96899.44;;;8.54;76.48
78890;BME280;68279;48.964;14.502;2023-12-29T15:39:44;96906.38;;;8.60;76.18
78890;BME280;68279;48.964;14.502;2023-12-29T15:42:09;96904.25;;;8.51;76.38
78890;BME280;68279;48.964;14.502;2023-12-29T15:44:35;96901.06;;;8.39;76.68
78890;BME280;68279;48.964;14.502;2023-12-29T15:47:00;96905.06;;;8.37;77.14
78890;BME280;68279;48.964;14.502;2023-12-29T15:49:25;96906.38;;;8.34;77.44
78890;BME280;68279;48.964;14.502;2023-12-29T15:51:51;96901.88;;;8.14;77.83
78890;BME280;68279;48.964;14.502;2023-12-29T15:54:16;96904.78;;;8.08;77.92
78890;BME280;68279;48.964;14.502;2023-12-29T15:56:41;96898.13;;;8.00;78.59
78890;BME280;68279;48.964;14.502;2023-12-29T15:59:07;96910.91;;;7.83;79.08
78890;BME280;68279;48.964;14.502;2023-12-29T16:01:32;96896.22;;;7.55;79.90
78890;BME280;68279;48.964;14.502;2023-12-29T16:03:58;96909.19;;;7.31;80.91
78890;BME280;68279;48.964;14.502;2023-12-29T16:06:27;96903.84;;;7.16;82.09
78890;BME280;68279;48.964;14.502;2023-12-29T16:08:53;96902.75;;;7.12;81.92
78890;BME280;68279;48.964;14.502;2023-12-29T16:11:23;96906.69;;;6.94;83.14
78890;BME280;68279;48.964;14.502;2023-12-29T16:13:49;96910.84;;;6.79;83.19
78890;BME280;68279;48.964;14.502;2023-12-29T16:18:30;96901.22;;;6.63;84.54
78890;BME280;68279;48.964;14.502;2023-12-29T16:20:57;96901.13;;;6.48;85.22
78890;BME280;68279;48.964;14.502;2023-12-29T16:23:22;96904.41;;;6.65;84.51
78890;BME280;68279;48.964;14.502;2023-12-29T16:25:48;96904.31;;;6.50;85.44
78890;BME280;68279;48.964;14.502;2023-12-29T16:28:13;96901.88;;;6.43;85.65
78890;BME280;68279;48.964;14.502;2023-12-29T16:30:38;96905.00;;;6.30;86.52
78890;BME280;68279;48.964;14.502;2023-12-29T16:33:04;96899.66;;;6.25;86.71
78890;BME280;68279;48.964;14.502;2023-12-29T16:35:30;96905.31;;;6.39;87.28
78890;BME280;68279;48.964;14.502;2023-12-29T16:37:56;96908.25;;;6.42;87.14
78890;BME280;68279;48.964;14.502;2023-12-29T16:40:21;96901.94;;;6.48;87.37
78890;BME280;68279;48.964;14.502;2023-12-29T16:42:46;96908.03;;;6.49;87.33
78890;BME280;68279;48.964;14.502;2023-12-29T16:45:12;96912.72;;;6.79;86.32
78890;BME280;68279;48.964;14.502;2023-12-29T16:47:37;96906.69;;;6.94;86.12
78890;BME280;68279;48.964;14.502;2023-12-29T16:50:03;96904.28;;;6.97;85.87
78890;BME280;68279;48.964;14.502;2023-12-29T16:52:29;96914.19;;;7.12;85.54
78890;BME280;68279;48.964;14.502;2023-12-29T16:54:54;96920.38;;;7.28;85.22
78890;BME280;68279;48.964;14.502;2023-12-29T16:57:19;96915.31;;;7.31;85.16
78890;BME280;68279;48.964;14.502;2023-12-29T16:59:45;96904.16;;;7.29;84.89
78890;BME280;68279;48.964;14.502;2023-12-29T17:02:10;96909.19;;;7.31;84.60
78890;BME280;68279;48.964;14.502;2023-12-29T17:04:36;96906.50;;;7.16;84.90
78890;BME280;68279;48.964;14.502;2023-12-29T17:07:02;96905.41;;;7.12;85.30
78890;BME280;68279;48.964;14.502;2023-12-29T17:09:27;96902.72;;;7.06;85.77
78890;BME280;68279;48.964;14.502;2023-12-29T17:11:52;96905.19;;;7.18;85.30
78890;BME280;68279;48.964;14.502;2023-12-29T17:14:18;96897.75;;;7.25;85.14
78890;BME280;68279;48.964;14.502;2023-12-29T17:16:43;96900.66;;;7.19;85.42
78890;BME280;68279;48.964;14.502;2023-12-29T17:19:09;96895.41;;;7.34;84.73
78890;BME280;68279;48.964;14.502;2023-12-29T17:21:35;96890.06;;;7.29;84.69
78890;BME280;68279;48.964;14.502;2023-12-29T17:24:00;96890.38;;;7.58;82.92
78890;BME280;68279;48.964;14.502;2023-12-29T17:26:25;96893.34;;;8.07;79.32
78890;BME280;68279;48.964;14.502;2023-12-29T17:28:51;96896.22;;;8.57;75.98
78890;BME280;68279;48.964;14.502;2023-12-29T17:31:16;96894.34;;;8.67;75.26
78890;BME280;68279;48.964;14.502;2023-12-29T17:33:42;96902.00;;;8.89;74.47
78890;BME280;68279;48.964;14.502;2023-12-29T17:36:08;96904.78;;;8.48;76.47
78890;BME280;68279;48.964;14.502;2023-12-29T17:38:35;96900.28;;;8.13;78.37
78890;BME280;68279;48.964;14.502;2023-12-29T17:41:04;96890.94;;;7.80;80.58
78890;BME280;68279;48.964;14.502;2023-12-29T17:43:30;96899.94;;;7.59;81.96
78890;BME280;68279;48.964;14.502;2023-12-29T17:45:56;96898.59;;;7.41;83.01
78890;BME280;68279;48.964;14.502;2023-12-29T17:48:22;96890.31;;;7.32;83.79
78890;BME280;68279;48.964;14.502;2023-12-29T17:50:47;96898.00;;;7.19;84.16
78890;BME280;68279;48.964;14.502;2023-12-29T17:53:14;96893.72;;;7.07;85.09
78890;BME280;68279;48.964;14.502;2023-12-29T17:55:41;96901.41;;;7.04;85.60
78890;BME280;68279;48.964;14.502;2023-12-29T17:58:07;96891.06;;;7.07;85.71
78890;BME280;68279;48.964;14.502;2023-12-29T18:00:34;96893.44;;;7.09;85.42
78890;BME280;68279;48.964;14.502;2023-12-29T18:02:59;96886.50;;;7.03;85.80
78890;BME280;68279;48.964;14.502;2023-12-29T18:05:24;96882.25;;;7.02;86.10
78890;BME280;68279;48.964;14.502;2023-12-29T18:07:50;96883.31;;;7.01;86.51
78890;BME280;68279;48.964;14.502;2023-12-29T18:10:15;96882.72;;;6.89;86.82
78890;BME280;68279;48.964;14.502;2023-12-29T18:12:41;96881.13;;;6.82;87.71
78890;BME280;68279;48.964;14.502;2023-12-29T18:15:06;96876.88;;;6.81;87.84
78890;BME280;68279;48.964;14.502;2023-12-29T18:17:36;96879.22;;;6.78;87.79
78890;BME280;68279;48.964;14.502;2023-12-29T18:20:02;96877.31;;;6.63;87.90
78890;BME280;68279;48.964;14.502;2023-12-29T18:22:28;96875.31;;;6.43;88.79
78890;BME280;68279;48.964;14.502;2023-12-29T18:24:53;96877.66;;;6.35;89.56
78890;BME280;68279;48.964;14.502;2023-12-29T18:27:19;96879.81;;;6.38;89.78
78890;BME280;68279;48.964;14.502;2023-12-29T18:29:44;96876.69;;;6.51;89.86
78890;BME280;68279;48.964;14.502;2023-12-29T18:32:09;96883.91;;;6.61;89.23
78890;BME280;68279;48.964;14.502;2023-12-29T18:34:35;96878.94;;;6.74;89.10
78890;BME280;68279;48.964;14.502;2023-12-29T18:37:02;96876.09;;;6.91;88.11
78890;BME280;68279;48.964;14.502;2023-12-29T18:39:27;96887.72;;;6.75;88.73
78890;BME280;68279;48.964;14.502;2023-12-29T18:41:53;96884.22;;;6.69;88.71
78890;BME280;68279;48.964;14.502;2023-12-29T18:44:18;96881.16;;;6.40;89.57
78890;BME280;68279;48.964;14.502;2023-12-29T18:46:43;96882.75;;;6.36;90.38
78890;BME280;68279;48.964;14.502;2023-12-29T18:49:09;96878.19;;;6.32;90.48
78890;BME280;68279;48.964;14.502;2023-12-29T18:51:34;96876.31;;;6.32;90.32
78890;BME280;68279;48.964;14.502;2023-12-29T18:54:00;96876.13;;;6.39;90.34
78890;BME280;68279;48.964;14.502;2023-12-29T18:56:26;96875.72;;;6.20;90.67
78890;BME280;68279;48.964;14.502;2023-12-29T18:58:51;96871.28;;;5.93;92.00
78890;BME280;68279;48.964;14.502;2023-12-29T19:01:16;96882.16;;;5.92;92.46
78890;BME280;68279;48.964;14.502;2023-12-29T19:03:43;96877.66;;;5.92;92.88
78890;BME280;68279;48.964;14.502;2023-12-29T19:06:08;96873.75;;;6.05;92.79
78890;BME280;68279;48.964;14.502;2023-12-29T19:08:34;96877.25;;;6.11;91.82
78890;BME280;68279;48.964;14.502;2023-12-29T19:11:00;96883.31;;;6.06;92.14
78890;BME280;68279;48.964;14.502;2023-12-29T19:13:25;96881.03;;;5.88;92.90
78890;BME280;68279;48.964;14.502;2023-12-29T19:15:51;96886.97;;;5.95;92.75
78890;BME280;68279;48.964;14.502;2023-12-29T19:18:18;96881.13;;;5.98;92.67
78890;BME280;68279;48.964;14.502;2023-12-29T19:20:43;96889.25;;;5.86;93.28
78890;BME280;68279;48.964;14.502;2023-12-29T19:23:08;96883.88;;;5.76;93.66
78890;BME280;68279;48.964;14.502;2023-12-29T19:25:34;96879.97;;;5.57;93.88
78890;BME280;68279;48.964;14.502;2023-12-29T19:28:01;96882.97;;;5.65;94.82
78890;BME280;68279;48.964;14.502;2023-12-29T19:30:27;96874.56;;;5.47;94.19
78890;BME280;68279;48.964;14.502;2023-12-29T19:32:52;96880.47;;;5.27;95.49
78890;BME280;68279;48.964;14.502;2023-12-29T19:35:17;96882.47;;;5.15;95.98
78890;BME280;68279;48.964;14.502;2023-12-29T19:37:43;96891.91;;;5.05;96.90
78890;BME280;68279;48.964;14.502;2023-12-29T19:40:10;96876.13;;;5.16;96.97
78890;BME280;68279;48.964;14.502;2023-12-29T19:42:35;96888.38;;;5.22;96.84
78890;BME280;68279;48.964;14.502;2023-12-29T19:45:01;96887.25;;;5.18;96.14
78890;BME280;68279;48.964;14.502;2023-12-29T19:47:26;96885.38;;;4.91;96.49
78890;BME280;68279;48.964;14.502;2023-12-29T19:49:52;96885.88;;;4.66;97.13
78890;BME280;68279;48.964;14.502;2023-12-29T19:52:17;96879.63;;;4.55;98.61
78890;BME280;68279;48.964;14.502;2023-12-29T19:54:47;96883.69;;;4.41;98.67
78890;BME280;68279;48.964;14.502;2023-12-29T19:57:12;96889.69;;;4.53;100.00
78890;BME280;68279;48.964;14.502;2023-12-29T19:59:38;96885.06;;;4.44;99.51
78890;BME280;68279;48.964;14.502;2023-12-29T20:02:03;96882.84;;;4.58;99.69
78890;BME280;68279;48.964;14.502;2023-12-29T20:04:29;96876.81;;;4.62;100.00
78890;BME280;68279;48.964;14.502;2023-12-29T20:06:54;96883.16;;;4.83;98.95
78890;BME280;68279;48.964;14.502;2023-12-29T20:09:20;96867.75;;;4.80;97.81
78890;BME280;68279;48.964;14.502;2023-12-29T20:11:47;96871.91;;;4.71;98.75
78890;BME280;68279;48.964;14.502;2023-12-29T20:14:13;96870.41;;;4.80;98.39
78890;BME280;68279;48.964;14.502;2023-12-29T20:16:38;96856.41;;;4.84;97.18
78890;BME280;68279;48.964;14.502;2023-12-29T20:19:04;96848.47;;;4.84;96.84
78890;BME280;68279;48.964;14.502;2023-12-29T20:21:29;96858.22;;;4.79;97.92
78890;BME280;68279;48.964;14.502;2023-12-29T20:23:55;96853.75;;;4.84;96.73
78890;BME280;68279;48.964;14.502;2023-12-29T20:26:21;96852.84;;;4.74;96.97
78890;BME280;68279;48.964;14.502;2023-12-29T20:28:46;96850.38;;;4.89;97.14
78890;BME280;68279;48.964;14.502;2023-12-29T20:31:26;96844.75;;;4.86;96.01
78890;BME280;68279;48.964;14.502;2023-12-29T20:33:52;96846.22;;;4.71;97.06
78890;BME280;68279;48.964;14.502;2023-12-29T20:36:18;96856.13;;;4.81;97.12
78890;BME280;68279;48.964;14.502;2023-12-29T20:38:44;96842.88;;;4.81;96.91
78890;BME280;68279;48.964;14.502;2023-12-29T20:41:13;96856.38;;;4.79;96.87
78890;BME280;68279;48.964;14.502;2023-12-29T20:43:38;96848.16;;;4.81;96.61
78890;BME280;68279;48.964;14.502;2023-12-29T20:46:04;96855.06;;;5.04;95.68
78890;BME280;68279;48.964;14.502;2023-12-29T20:48:30;96848.75;;;5.10;94.90
78890;BME280;68279;48.964;14.502;2023-12-29T20:50:55;96840.00;;;5.09;95.01
78890;BME280;68279;48.964;14.502;2023-12-29T20:53:21;96848.56;;;5.44;93.90
78890;BME280;68279;48.964;14.502;2023-12-29T20:55:46;96845.72;;;5.55;92.61
78890;BME280;68279;48.964;14.502;2023-12-29T20:58:13;96851.28;;;5.86;90.78
78890;BME280;68279;48.964;14.502;2023-12-29T21:00:38;96851.38;;;6.33;88.39
78890;BME280;68279;48.964;14.502;2023-12-29T21:03:04;96851.31;;;6.23;88.85
78890;BME280;68279;48.964;14.502;2023-12-29T21:05:32;96856.78;;;6.53;87.52
78890;BME280;68279;48.964;14.502;2023-12-29T21:07:57;96846.72;;;6.61;86.57
78890;BME280;68279;48.964;14.502;2023-12-29T21:10:22;96849.78;;;6.90;85.20
78890;BME280;68279;48.964;14.502;2023-12-29T21:12:48;96847.94;;;7.00;84.36
78890;BME280;68279;48.964;14.502;2023-12-29T21:15:13;96856.97;;;6.89;84.45
78890;BME280;68279;48.964;14.502;2023-12-29T21:17:39;96849.31;;;7.13;83.21
78890;BME280;68279;48.964;14.502;2023-12-29T21:20:08;96853.59;;;7.24;82.32
78890;BME280;68279;48.964;14.502;2023-12-29T21:22:36;96857.34;;;7.28;82.07
78890;BME280;68279;48.964;14.502;2023-12-29T21:25:05;96853.59;;;7.29;81.90
78890;BME280;68279;48.964;14.502;2023-12-29T21:27:30;96854.88;;;7.01;82.81
78890;BME280;68279;48.964;14.502;2023-12-29T21:29:59;96865.84;;;7.30;81.67
78890;BME280;68279;48.964;14.502;2023-12-29T21:32:25;96849.31;;;7.13;82.25
78890;BME280;68279;48.964;14.502;2023-12-29T21:34:55;96848.28;;;7.39;81.03
78890;BME280;68279;48.964;14.502;2023-12-29T21:37:20;96858.44;;;7.43;80.44
78890;BME280;68279;48.964;14.502;2023-12-29T21:39:48;96861.63;;;7.50;80.20
78890;BME280;68279;48.964;14.502;2023-12-29T21:42:13;96865.31;;;7.38;80.29
78890;BME280;68279;48.964;14.502;2023-12-29T21:44:38;96858.31;;;7.02;81.51
78890;BME280;68279;48.964;14.502;2023-12-29T21:47:04;96856.31;;;7.45;79.83
78890;BME280;68279;48.964;14.502;2023-12-29T21:49:30;96852.53;;;7.25;80.62
78890;BME280;68279;48.964;14.502;2023-12-29T21:51:55;96853.13;;;7.53;78.65
78890;BME280;68279;48.964;14.502;2023-12-29T21:54:21;96852.06;;;7.79;77.33
78890;BME280;68279;48.964;14.502;2023-12-29T21:56:46;96858.19;;;8.00;75.72
78890;BME280;68279;48.964;14.502;2023-12-29T21:59:11;96854.44;;;8.16;74.30
78890;BME280;68279;48.964;14.502;2023-12-29T22:01:37;96862.44;;;7.91;75.71
78890;BME280;68279;48.964;14.502;2023-12-29T22:04:04;96864.00;;;8.28;73.93
78890;BME280;68279;48.964;14.502;2023-12-29T22:06:30;96860.31;;;8.08;74.20
78890;BME280;68279;48.964;14.502;2023-12-29T22:08:59;96846.22;;;7.62;76.13
78890;BME280;68279;48.964;14.502;2023-12-29T22:11:26;96845.41;;;7.72;75.86
78890;BME280;68279;48.964;14.502;2023-12-29T22:13:51;96849.91;;;8.02;74.56
78890;BME280;68279;48.964;14.502;2023-12-29T22:16:18;96837.66;;;8.11;74.32
78890;BME280;68279;48.964;14.502;2023-12-29T22:18:43;96833.13;;;8.11;74.17
78890;BME280;68279;48.964;14.502;2023-12-29T22:21:16;96844.59;;;8.02;74.21
78890;BME280;68279;48.964;14.502;2023-12-29T22:23:43;96836.34;;;7.73;75.22
78890;BME280;68279;48.964;14.502;2023-12-29T22:26:11;96832.59;;;7.38;76.55
78890;BME280;68279;48.964;14.502;2023-12-29T22:28:36;96822.22;;;7.36;76.74
78890;BME280;68279;48.964;14.502;2023-12-29T22:31:01;96831.84;;;7.63;75.90
78890;BME280;68279;48.964;14.502;2023-12-29T22:33:29;96832.34;;;7.85;74.99
78890;BME280;68279;48.964;14.502;2023-12-29T22:35:54;96830.50;;;7.60;75.79
78890;BME280;68279;48.964;14.502;2023-12-29T22:38:19;96836.06;;;7.28;77.18
78890;BME280;68279;48.964;14.502;2023-12-29T22:40:45;96834.94;;;7.09;78.10
78890;BME280;68279;48.964;14.502;2023-12-29T22:43:10;96829.59;;;6.94;78.39
78890;BME280;68279;48.964;14.502;2023-12-29T22:45:36;96830.06;;;6.75;79.67
78890;BME280;68279;48.964;14.502;2023-12-29T22:48:01;96826.09;;;6.25;81.30
78890;BME280;68279;48.964;14.502;2023-12-29T22:50:26;96832.28;;;5.94;82.76
78890;BME280;68279;48.964;14.502;2023-12-29T22:52:53;96826.78;;;5.74;84.07
78890;BME280;68279;48.964;14.502;2023-12-29T22:55:18;96828.41;;;5.48;85.34
